createdAt,value
2024-02-17T00:01:07.450Z,14.46
2024-02-17T00:03:13.643Z,14.46
2024-02-17T00:05:16.974Z,14.45
2024-02-17T00:07:20.216Z,14.45
2024-02-17T00:09:23.819Z,14.44
2024-02-17T00:11:28.447Z,14.43
2024-02-17T00:13:31.683Z,14.42
2024-02-17T00:15:34.906Z,14.42
2024-02-17T00:17:38.966Z,14.41
2024-02-17T00:19:42.462Z,14.43
2024-02-17T00:21:45.722Z,14.42
2024-02-17T00:23:48.873Z,14.42
2024-02-17T00:25:52.204Z,14.41
2024-02-17T00:27:57.293Z,14.42
2024-02-17T00:30:00.450Z,14.42
2024-02-17T00:32:04.388Z,14.40
2024-02-17T00:34:08.104Z,14.36
2024-02-17T00:36:10.508Z,14.35
2024-02-17T00:38:13.824Z,14.34
2024-02-17T00:40:17.530Z,14.33
2024-02-17T00:42:20.655Z,14.33
2024-02-17T00:44:25.505Z,14.32
2024-02-17T00:46:28.682Z,14.31
2024-02-17T00:48:33.667Z,14.30
2024-02-17T00:50:36.855Z,14.30
2024-02-17T00:52:39.989Z,14.30
2024-02-17T00:54:43.122Z,14.29
2024-02-17T00:56:46.433Z,14.26
2024-02-17T00:58:48.880Z,14.24
2024-02-17T01:00:53.819Z,14.26
2024-02-17T01:02:56.749Z,14.27
2024-02-17T01:04:59.986Z,14.26
2024-02-17T01:07:03.316Z,14.22
2024-02-17T01:09:06.588Z,14.24
2024-02-17T01:11:09.879Z,14.22
2024-02-17T01:13:13.954Z,14.23
2024-02-17T01:15:17.508Z,14.21
2024-02-17T01:17:22.428Z,14.21
2024-02-17T01:19:25.701Z,14.19
2024-02-17T01:21:31.978Z,14.18
2024-02-17T01:23:34.699Z,14.20
2024-02-17T01:25:38.131Z,14.17
2024-02-17T01:27:41.860Z,14.16
2024-02-17T01:29:45.192Z,14.16
2024-02-17T01:31:48.270Z,14.15
2024-02-17T01:33:52.850Z,14.11
2024-02-17T01:35:55.398Z,14.09
2024-02-17T01:37:58.564Z,14.09
2024-02-17T01:40:01.929Z,14.05
2024-02-17T01:42:05.421Z,14.02
2024-02-17T01:44:08.677Z,14.03
2024-02-17T01:46:10.991Z,14.01
2024-02-17T01:48:15.312Z,14.02
2024-02-17T01:50:19.407Z,14.03
2024-02-17T01:52:23.293Z,14.02
2024-02-17T01:54:26.522Z,14.02
2024-02-17T01:56:30.871Z,14.02
2024-02-17T01:58:34.202Z,14.02
2024-02-17T02:00:36.476Z,14.00
2024-02-17T02:02:40.307Z,13.98
2024-02-17T02:04:43.468Z,13.98
2024-02-17T02:06:48.057Z,13.99
2024-02-17T02:08:51.681Z,13.98
2024-02-17T02:10:55.998Z,13.96
2024-02-17T02:12:59.251Z,13.94
2024-02-17T02:15:05.804Z,13.95
2024-02-17T02:17:09.896Z,13.93
2024-02-17T02:19:15.486Z,13.93
2024-02-17T02:21:18.864Z,13.95
2024-02-17T02:23:22.541Z,13.96
2024-02-17T02:25:27.146Z,13.95
2024-02-17T02:27:31.823Z,13.95
2024-02-17T02:29:35.221Z,13.93
2024-02-17T02:31:38.448Z,13.93
2024-02-17T02:33:41.696Z,13.95
2024-02-17T02:35:46.013Z,13.92
2024-02-17T02:37:49.301Z,13.90
2024-02-17T02:39:52.689Z,13.90
2024-02-17T02:41:56.072Z,13.88
2024-02-17T02:44:00.574Z,13.82
2024-02-17T02:46:03.729Z,13.80
2024-02-17T02:48:07.814Z,13.79
2024-02-17T02:50:12.177Z,13.79
2024-02-17T02:52:16.404Z,13.79
2024-02-17T02:54:20.379Z,13.81
2024-02-17T02:56:24.148Z,13.79
2024-02-17T02:58:27.413Z,13.76
2024-02-17T03:00:31.192Z,13.72
2024-02-17T03:02:35.355Z,13.71
2024-02-17T03:04:38.613Z,13.71
2024-02-17T03:06:41.947Z,13.72
2024-02-17T03:08:45.114Z,13.73
2024-02-17T03:10:48.284Z,13.74
2024-02-17T03:12:51.478Z,13.74
2024-02-17T03:14:59.935Z,13.74
2024-02-17T03:17:04.640Z,13.74
2024-02-17T03:19:07.979Z,13.72
2024-02-17T03:21:11.399Z,13.72
2024-02-17T03:23:14.667Z,13.71
2024-02-17T03:25:20.468Z,13.74
2024-02-17T03:27:23.935Z,13.74
2024-02-17T03:29:27.378Z,13.75
2024-02-17T03:31:30.568Z,13.74
2024-02-17T03:33:35.388Z,13.75
2024-02-17T03:35:39.663Z,13.74
2024-02-17T03:37:42.812Z,13.76
2024-02-17T03:39:47.170Z,13.74
2024-02-17T03:41:50.704Z,13.74
2024-02-17T03:43:53.945Z,13.73
2024-02-17T03:45:56.184Z,13.71
2024-02-17T03:47:59.485Z,13.70
2024-02-17T03:50:04.373Z,13.69
2024-02-17T03:52:08.774Z,13.67
2024-02-17T03:54:11.933Z,13.68
2024-02-17T03:56:16.468Z,13.65
2024-02-17T03:58:19.639Z,13.65
2024-02-17T04:00:22.921Z,13.64
2024-02-17T04:02:26.141Z,13.65
2024-02-17T04:04:29.335Z,13.66
2024-02-17T04:06:34.712Z,13.64
2024-02-17T04:08:37.912Z,13.64
2024-02-17T04:10:41.106Z,13.64
2024-02-17T04:12:44.572Z,13.64
2024-02-17T04:14:47.766Z,13.62
2024-02-17T04:16:51.036Z,13.61
2024-02-17T04:18:54.458Z,13.60
2024-02-17T04:20:57.723Z,13.60
2024-02-17T04:23:02.348Z,13.59
2024-02-17T04:25:06.851Z,13.59
2024-02-17T04:27:13.000Z,13.58
2024-02-17T04:29:18.036Z,13.59
2024-02-17T04:31:21.438Z,13.59
2024-02-17T04:33:23.929Z,13.58
2024-02-17T04:35:27.527Z,13.58
2024-02-17T04:37:30.757Z,13.58
2024-02-17T04:39:36.017Z,13.57
2024-02-17T04:41:39.104Z,13.58
2024-02-17T04:43:42.333Z,13.59
2024-02-17T04:45:45.579Z,13.62
2024-02-17T04:47:50.011Z,13.61
2024-02-17T04:49:53.442Z,13.59
2024-02-17T04:51:56.651Z,13.59
2024-02-17T04:53:59.733Z,13.59
2024-02-17T04:56:04.461Z,13.56
2024-02-17T04:58:08.176Z,13.57
2024-02-17T05:00:12.162Z,13.55
2024-02-17T05:02:15.431Z,13.53
2024-02-17T05:04:18.669Z,13.55
2024-02-17T05:06:23.290Z,13.55
2024-02-17T05:08:26.457Z,13.54
2024-02-17T05:10:28.710Z,13.51
2024-02-17T05:12:33.313Z,13.48
2024-02-17T05:14:39.332Z,13.46
2024-02-17T05:16:41.720Z,13.45
2024-02-17T05:18:45.678Z,13.45
2024-02-17T05:20:48.937Z,13.43
2024-02-17T05:22:52.240Z,13.41
2024-02-17T05:24:55.640Z,13.40
2024-02-17T05:26:59.187Z,13.39
2024-02-17T05:29:07.001Z,13.35
2024-02-17T05:31:26.646Z,13.35
2024-02-17T05:33:30.114Z,13.30
2024-02-17T05:35:33.461Z,13.30
2024-02-17T05:37:37.068Z,13.29
2024-02-17T05:39:39.221Z,13.27
2024-02-17T05:41:43.459Z,13.26
2024-02-17T05:43:46.745Z,13.24
2024-02-17T05:45:51.318Z,13.24
2024-02-17T05:47:54.536Z,13.18
2024-02-17T05:49:57.878Z,13.14
2024-02-17T05:52:01.068Z,13.13
2024-02-17T05:54:04.201Z,13.11
2024-02-17T05:56:08.180Z,13.09
2024-02-17T05:58:11.290Z,13.07
2024-02-17T06:00:15.384Z,13.05
2024-02-17T06:02:19.889Z,13.06
2024-02-17T06:04:23.267Z,13.05
2024-02-17T06:06:28.166Z,13.04
2024-02-17T06:08:34.359Z,13.03
2024-02-17T06:10:38.336Z,13.03
2024-02-17T06:12:41.581Z,12.99
2024-02-17T06:14:44.852Z,12.99
2024-02-17T06:16:48.032Z,13.00
2024-02-17T06:19:10.288Z,12.99
2024-02-17T06:21:12.948Z,13.01
2024-02-17T06:23:16.135Z,13.01
2024-02-17T06:25:19.254Z,13.00
2024-02-17T06:27:22.440Z,13.00
2024-02-17T06:29:25.604Z,13.01
2024-02-17T06:31:29.111Z,12.99
2024-02-17T06:33:32.958Z,12.99
2024-02-17T06:35:37.749Z,12.99
2024-02-17T06:37:41.688Z,13.00
2024-02-17T06:39:44.894Z,12.99
2024-02-17T06:41:48.061Z,13.00
2024-02-17T06:43:51.595Z,12.96
2024-02-17T06:45:55.044Z,12.97
2024-02-17T06:47:58.959Z,12.98
2024-02-17T06:50:03.266Z,12.99
2024-02-17T06:52:09.010Z,12.98
2024-02-17T06:54:12.351Z,12.98
2024-02-17T06:56:15.632Z,12.98
2024-02-17T06:58:18.759Z,12.97
2024-02-17T07:00:21.888Z,12.95
2024-02-17T07:02:28.082Z,12.92
2024-02-17T07:04:32.002Z,12.89
2024-02-17T07:06:35.173Z,12.86
2024-02-17T07:08:41.925Z,12.85
2024-02-17T07:10:44.278Z,12.83
2024-02-17T07:12:47.569Z,12.83
2024-02-17T07:14:51.246Z,12.79
2024-02-17T07:16:55.868Z,12.78
2024-02-17T07:19:00.698Z,12.76
2024-02-17T07:21:03.366Z,12.76
2024-02-17T07:23:06.746Z,12.78
2024-02-17T07:25:12.273Z,12.83
2024-02-17T07:27:15.585Z,13.00
2024-02-17T07:29:18.071Z,13.18
2024-02-17T07:31:22.051Z,13.27
2024-02-17T07:33:25.349Z,13.34
2024-02-17T07:35:28.537Z,13.49
2024-02-17T07:37:30.625Z,13.57
2024-02-17T07:39:37.037Z,13.63
2024-02-17T07:41:41.625Z,13.67
2024-02-17T07:43:44.809Z,13.80
2024-02-17T07:45:49.971Z,13.99
2024-02-17T07:47:53.302Z,14.04
2024-02-17T07:49:55.813Z,13.91
2024-02-17T07:51:59.166Z,13.79
2024-02-17T07:54:02.415Z,13.71
2024-02-17T07:56:05.388Z,13.65
2024-02-17T07:58:10.019Z,13.61
2024-02-17T08:00:16.132Z,13.65
2024-02-17T08:02:19.767Z,13.95
2024-02-17T08:04:22.954Z,14.25
2024-02-17T08:06:26.991Z,14.49
2024-02-17T08:08:30.206Z,14.69
2024-02-17T08:10:32.483Z,14.88
2024-02-17T08:12:35.759Z,14.96
2024-02-17T08:14:41.898Z,14.98
2024-02-17T08:16:45.308Z,15.07
2024-02-17T08:18:48.706Z,15.13
2024-02-17T08:20:53.182Z,15.07
2024-02-17T08:22:56.477Z,15.10
2024-02-17T08:24:59.714Z,15.20
2024-02-17T08:27:02.906Z,15.30
2024-02-17T08:29:06.169Z,15.45
2024-02-17T08:31:10.718Z,15.56
2024-02-17T08:33:14.744Z,15.64
2024-02-17T08:35:18.030Z,15.78
2024-02-17T08:37:20.282Z,15.84
2024-02-17T08:39:23.499Z,15.87
2024-02-17T08:41:25.837Z,15.84
2024-02-17T08:43:28.991Z,15.89
2024-02-17T08:45:32.321Z,15.90
2024-02-17T08:47:36.895Z,15.99
2024-02-17T08:49:39.237Z,16.09
2024-02-17T08:51:42.593Z,16.16
2024-02-17T08:53:46.059Z,16.03
2024-02-17T08:55:49.219Z,15.97
2024-02-17T08:57:52.418Z,16.08
2024-02-17T08:59:55.710Z,16.15
2024-02-17T09:01:58.898Z,16.05
2024-02-17T09:04:03.585Z,16.05
2024-02-17T09:06:07.186Z,15.99
2024-02-17T09:08:10.317Z,15.90
2024-02-17T09:10:17.014Z,15.81
2024-02-17T09:12:20.381Z,15.70
2024-02-17T09:14:23.577Z,15.53
2024-02-17T09:16:28.645Z,15.41
2024-02-17T09:18:32.220Z,15.27
2024-02-17T09:20:36.847Z,15.38
2024-02-17T09:22:40.091Z,15.59
2024-02-17T09:24:43.226Z,15.60
2024-02-17T09:26:46.378Z,15.39
2024-02-17T09:28:50.181Z,15.45
2024-02-17T09:30:53.534Z,15.67
2024-02-17T09:32:56.882Z,15.78
2024-02-17T09:35:00.249Z,15.80
2024-02-17T09:37:05.705Z,16.04
2024-02-17T09:39:09.010Z,16.24
2024-02-17T09:41:12.199Z,16.36
2024-02-17T09:43:15.415Z,16.44
2024-02-17T09:45:18.717Z,16.30
2024-02-17T09:47:22.318Z,15.90
2024-02-17T09:49:28.098Z,15.67
2024-02-17T09:51:31.802Z,15.59
2024-02-17T09:53:37.788Z,15.65
2024-02-17T09:55:42.832Z,15.71
2024-02-17T09:57:54.224Z,15.61
2024-02-17T09:59:58.648Z,15.59
2024-02-17T10:02:01.091Z,15.82
2024-02-17T10:04:05.450Z,15.87
2024-02-17T10:06:12.425Z,16.05
2024-02-17T10:08:15.876Z,16.32
2024-02-17T10:10:21.585Z,16.55
2024-02-17T10:12:25.724Z,16.77
2024-02-17T10:14:29.280Z,16.84
2024-02-17T10:16:33.661Z,16.90
2024-02-17T10:18:40.937Z,16.95
2024-02-17T10:20:44.900Z,16.96
2024-02-17T10:22:48.673Z,16.84
2024-02-17T10:24:51.912Z,16.45
2024-02-17T10:26:56.875Z,16.19
2024-02-17T10:29:01.258Z,16.02
2024-02-17T10:31:04.935Z,15.88
2024-02-17T10:33:11.321Z,15.79
2024-02-17T10:35:15.951Z,15.71
2024-02-17T10:37:19.405Z,15.66
2024-02-17T10:39:23.429Z,15.61
2024-02-17T10:41:27.918Z,15.60
2024-02-17T10:43:37.415Z,15.58
2024-02-17T10:45:40.031Z,15.51
2024-02-17T10:47:44.748Z,15.47
2024-02-17T10:49:49.715Z,15.43
2024-02-17T10:51:59.025Z,15.42
2024-02-17T10:54:03.576Z,15.35
2024-02-17T10:56:08.466Z,15.37
2024-02-17T10:58:17.097Z,15.46
2024-02-17T11:00:22.437Z,15.52
2024-02-17T11:02:29.783Z,15.54
2024-02-17T11:04:33.713Z,15.68
2024-02-17T11:06:39.249Z,15.84
2024-02-17T11:08:42.726Z,15.93
2024-02-17T11:10:46.307Z,15.92
2024-02-17T11:12:49.525Z,15.91
2024-02-17T11:14:52.884Z,16.01
2024-02-17T11:16:57.619Z,16.04
2024-02-17T11:19:01.880Z,16.12
2024-02-17T11:21:05.401Z,16.23
2024-02-17T11:23:08.956Z,16.20
2024-02-17T11:25:12.507Z,16.11
2024-02-17T11:27:16.090Z,16.06
2024-02-17T11:29:29.025Z,16.03
2024-02-17T11:31:32.771Z,16.08
2024-02-17T11:33:39.256Z,16.08
2024-02-17T11:35:43.495Z,16.05
2024-02-17T11:37:50.856Z,16.11
2024-02-17T11:39:54.088Z,15.99
2024-02-17T11:41:58.488Z,15.94
2024-02-17T11:44:03.856Z,15.90
2024-02-17T11:46:07.127Z,15.92
2024-02-17T11:48:10.521Z,15.91
2024-02-17T11:50:15.694Z,15.73
2024-02-17T11:52:21.777Z,15.73
2024-02-17T11:54:25.162Z,15.85
2024-02-17T11:56:28.502Z,15.92
2024-02-17T11:58:31.740Z,16.02
2024-02-17T12:00:39.203Z,16.05
2024-02-17T12:02:45.177Z,16.13
2024-02-17T12:04:48.432Z,16.19
2024-02-17T12:06:53.795Z,16.23
2024-02-17T12:08:56.983Z,16.16
2024-02-17T12:11:00.552Z,16.11
2024-02-17T12:13:02.799Z,16.03
2024-02-17T12:15:06.508Z,16.11
2024-02-17T12:17:10.209Z,16.16
2024-02-17T12:19:16.138Z,16.23
2024-02-17T12:21:19.696Z,16.33
2024-02-17T12:23:24.255Z,16.33
2024-02-17T12:25:28.833Z,16.18
2024-02-17T12:27:32.373Z,16.14
2024-02-17T12:29:35.574Z,16.11
2024-02-17T12:31:38.772Z,16.03
2024-02-17T12:33:49.169Z,15.89
2024-02-17T12:35:53.819Z,15.82
2024-02-17T12:37:58.074Z,15.98
2024-02-17T12:40:02.019Z,16.04
2024-02-17T12:42:06.932Z,16.10
2024-02-17T12:44:10.101Z,16.25
2024-02-17T12:46:21.102Z,16.46
2024-02-17T12:48:27.546Z,16.56
2024-02-17T12:50:31.265Z,16.56
2024-02-17T12:52:35.235Z,16.54
2024-02-17T12:54:38.797Z,16.51
2024-02-17T12:56:43.342Z,16.49
2024-02-17T12:58:46.971Z,16.48
2024-02-17T13:00:50.210Z,16.52
2024-02-17T13:02:54.687Z,16.54
2024-02-17T13:04:58.810Z,16.52
2024-02-17T13:07:02.397Z,16.48
2024-02-17T13:09:07.092Z,16.41
2024-02-17T13:11:10.399Z,16.36
2024-02-17T13:13:15.044Z,16.26
2024-02-17T13:15:21.572Z,16.19
2024-02-17T13:17:28.415Z,16.15
2024-02-17T13:19:32.086Z,16.09
2024-02-17T13:21:35.931Z,16.04
2024-02-17T13:23:39.102Z,16.05
2024-02-17T13:25:42.339Z,15.97
2024-02-17T13:27:46.838Z,15.94
2024-02-17T13:29:51.538Z,15.89
2024-02-17T13:31:54.803Z,15.87
2024-02-17T13:33:58.145Z,15.81
2024-02-17T13:36:01.476Z,15.75
2024-02-17T13:38:14.152Z,15.73
2024-02-17T13:40:25.503Z,15.69
2024-02-17T13:42:27.827Z,15.63
2024-02-17T13:44:31.089Z,15.58
2024-02-17T13:46:35.548Z,15.55
2024-02-17T13:48:38.923Z,15.54
2024-02-17T13:50:42.122Z,15.52
2024-02-17T13:52:45.308Z,15.50
2024-02-17T13:54:48.893Z,15.45
2024-02-17T13:56:52.257Z,15.43
2024-02-17T13:58:55.639Z,15.44
2024-02-17T14:00:58.990Z,15.44
2024-02-17T14:03:04.758Z,15.42
2024-02-17T14:05:07.495Z,15.39
2024-02-17T14:07:10.682Z,15.36
2024-02-17T14:09:13.902Z,15.34
2024-02-17T14:11:16.281Z,15.30
2024-02-17T14:13:19.618Z,15.27
2024-02-17T14:15:23.235Z,15.25
2024-02-17T14:17:28.443Z,15.27
2024-02-17T14:19:35.026Z,15.33
2024-02-17T14:21:38.922Z,15.38
2024-02-17T14:23:42.169Z,15.45
2024-02-17T14:25:46.001Z,15.50
2024-02-17T14:27:49.183Z,15.54
2024-02-17T14:29:56.772Z,15.58
2024-02-17T14:32:00.115Z,15.60
2024-02-17T14:34:03.427Z,15.62
2024-02-17T14:36:11.141Z,15.61
2024-02-17T14:38:15.523Z,15.58
2024-02-17T14:40:18.688Z,15.61
2024-02-17T14:42:22.022Z,15.61
2024-02-17T14:44:25.200Z,15.60
2024-02-17T14:46:35.474Z,15.61
2024-02-17T14:48:43.936Z,15.62
2024-02-17T14:50:47.877Z,15.66
2024-02-17T14:52:54.110Z,15.66
2024-02-17T14:54:57.489Z,15.64
2024-02-17T14:57:00.684Z,15.63
2024-02-17T14:59:04.315Z,15.62
2024-02-17T15:01:07.588Z,15.62
2024-02-17T15:03:10.908Z,15.62
2024-02-17T15:05:14.322Z,15.55
2024-02-17T15:07:19.343Z,15.56
2024-02-17T15:09:24.340Z,15.60
2024-02-17T15:11:27.547Z,15.62
2024-02-17T15:13:30.863Z,15.62
2024-02-17T15:15:34.127Z,15.64
2024-02-17T15:17:38.646Z,15.64
2024-02-17T15:19:41.564Z,15.67
2024-02-17T15:21:44.871Z,15.64
2024-02-17T15:23:48.391Z,15.62
2024-02-17T15:25:52.960Z,15.60
2024-02-17T15:27:57.205Z,15.58
2024-02-17T15:30:00.354Z,15.57
2024-02-17T15:32:03.586Z,15.54
2024-02-17T15:34:07.145Z,15.52
2024-02-17T15:36:12.018Z,15.49
2024-02-17T15:38:15.633Z,15.46
2024-02-17T15:40:18.721Z,15.47
2024-02-17T15:42:23.325Z,15.44
2024-02-17T15:44:26.450Z,15.42
2024-02-17T15:46:29.613Z,15.41
2024-02-17T15:48:34.446Z,15.39
2024-02-17T15:50:38.049Z,15.39
2024-02-17T15:52:41.186Z,15.38
2024-02-17T15:54:44.328Z,15.37
2024-02-17T15:56:47.500Z,15.37
2024-02-17T15:58:52.127Z,15.36
2024-02-17T16:00:57.945Z,15.34
2024-02-17T16:03:01.247Z,15.31
2024-02-17T16:05:04.613Z,15.30
2024-02-17T16:07:07.847Z,15.28
2024-02-17T16:09:11.400Z,15.24
2024-02-17T16:11:14.031Z,15.21
2024-02-17T16:13:18.886Z,15.19
2024-02-17T16:15:23.663Z,15.18
2024-02-17T16:17:27.192Z,15.16
2024-02-17T16:19:29.633Z,15.14
2024-02-17T16:21:36.181Z,15.12
2024-02-17T16:23:39.696Z,15.11
2024-02-17T16:25:42.895Z,15.09
2024-02-17T16:27:46.099Z,15.08
2024-02-17T16:29:49.374Z,15.07
2024-02-17T16:31:54.975Z,15.06
2024-02-17T16:33:58.538Z,15.06
2024-02-17T16:36:03.657Z,15.03
2024-02-17T16:38:07.239Z,15.02
2024-02-17T16:40:12.117Z,15.00
2024-02-17T16:42:15.432Z,14.99
2024-02-17T16:44:19.704Z,14.95
2024-02-17T16:46:22.931Z,14.93
2024-02-17T16:48:27.880Z,14.89
2024-02-17T16:50:31.175Z,14.85
2024-02-17T16:52:34.298Z,14.82
2024-02-17T16:54:36.566Z,14.78
2024-02-17T16:56:41.190Z,14.74
2024-02-17T16:58:44.916Z,14.70
2024-02-17T17:00:48.142Z,14.66
2024-02-17T17:02:50.875Z,14.64
2024-02-17T17:04:58.009Z,14.61
2024-02-17T17:07:02.202Z,14.59
2024-02-17T17:09:05.502Z,14.54
2024-02-17T17:11:08.764Z,14.50
2024-02-17T17:13:12.005Z,14.48
2024-02-17T17:15:15.433Z,14.44
2024-02-17T17:17:18.647Z,14.39
2024-02-17T17:19:21.993Z,14.35
2024-02-17T17:21:27.243Z,14.31
2024-02-17T17:23:30.413Z,14.25
2024-02-17T17:25:32.724Z,14.19
2024-02-17T17:27:36.218Z,14.14
2024-02-17T17:29:39.588Z,14.09
2024-02-17T17:31:43.033Z,14.04
2024-02-17T17:33:46.548Z,14.00
2024-02-17T17:35:50.172Z,13.90
2024-02-17T17:37:55.029Z,13.79
2024-02-17T17:39:58.274Z,13.68
2024-02-17T17:42:01.650Z,13.60
2024-02-17T17:44:04.192Z,13.53
2024-02-17T17:46:09.578Z,13.52
2024-02-17T17:48:13.458Z,13.47
2024-02-17T17:50:22.778Z,13.42
2024-02-17T17:52:26.325Z,13.39
2024-02-17T17:54:30.996Z,13.35
2024-02-17T17:56:35.888Z,13.31
2024-02-17T17:58:39.092Z,13.29
2024-02-17T18:00:42.522Z,13.29
2024-02-17T18:02:47.120Z,13.29
2024-02-17T18:04:50.536Z,13.26
2024-02-17T18:06:53.907Z,13.25
2024-02-17T18:08:58.452Z,13.23
2024-02-17T18:11:03.546Z,13.20
2024-02-17T18:13:06.982Z,13.18
2024-02-17T18:15:11.002Z,13.16
2024-02-17T18:17:14.302Z,13.14
2024-02-17T18:19:19.070Z,13.11
2024-02-17T18:21:23.473Z,13.07
2024-02-17T18:23:26.649Z,13.03
2024-02-17T18:25:29.826Z,13.01
2024-02-17T18:27:34.314Z,12.98
2024-02-17T18:29:37.425Z,12.99
2024-02-17T18:31:40.591Z,12.96
2024-02-17T18:33:45.168Z,12.95
2024-02-17T18:35:49.153Z,12.94
2024-02-17T18:37:52.731Z,12.93
2024-02-17T18:39:54.920Z,12.91
2024-02-17T18:41:58.342Z,12.89
2024-02-17T18:44:07.347Z,12.87
2024-02-17T18:46:11.442Z,12.85
2024-02-17T18:48:13.862Z,12.80
2024-02-17T18:50:17.495Z,12.76
2024-02-17T18:52:22.175Z,12.73
2024-02-17T18:54:25.442Z,12.73
2024-02-17T18:56:28.614Z,12.68
2024-02-17T18:58:30.808Z,12.61
2024-02-17T19:00:35.424Z,12.57
2024-02-17T19:02:38.699Z,12.56
2024-02-17T19:04:42.106Z,12.55
2024-02-17T19:06:45.384Z,12.55
2024-02-17T19:08:49.662Z,12.53
2024-02-17T19:10:52.908Z,12.53
2024-02-17T19:12:56.287Z,12.53
2024-02-17T19:14:59.509Z,12.53
2024-02-17T19:17:04.587Z,12.54
2024-02-17T19:19:07.999Z,12.52
2024-02-17T19:21:10.407Z,12.50
2024-02-17T19:23:18.566Z,12.50
2024-02-17T19:25:23.259Z,12.48
2024-02-17T19:27:26.458Z,12.47
2024-02-17T19:29:29.672Z,12.49
2024-02-17T19:31:33.124Z,12.50
2024-02-17T19:33:38.661Z,12.45
2024-02-17T19:35:42.419Z,12.46
2024-02-17T19:37:45.644Z,12.43
2024-02-17T19:39:49.041Z,12.37
2024-02-17T19:41:51.304Z,12.28
2024-02-17T19:43:54.715Z,12.27
2024-02-17T19:45:58.065Z,12.29
2024-02-17T19:48:01.619Z,12.28
2024-02-17T19:50:06.374Z,12.27
2024-02-17T19:52:09.769Z,12.25
2024-02-17T19:54:13.111Z,12.26
2024-02-17T19:56:17.492Z,12.25
2024-02-17T19:58:20.023Z,12.25
2024-02-17T20:00:23.240Z,12.23
2024-02-17T20:02:26.407Z,12.21
2024-02-17T20:04:30.305Z,12.18
2024-02-17T20:06:36.167Z,12.17
2024-02-17T20:08:39.438Z,12.18
2024-02-17T20:10:44.321Z,12.20
2024-02-17T20:12:47.736Z,12.23
2024-02-17T20:14:51.085Z,12.23
2024-02-17T20:16:55.896Z,12.22
2024-02-17T20:18:59.204Z,12.24
2024-02-17T20:21:06.730Z,12.21
2024-02-17T20:23:11.419Z,12.14
2024-02-17T20:25:14.627Z,12.09
2024-02-17T20:27:17.806Z,12.07
2024-02-17T20:29:21.016Z,12.07
2024-02-17T20:31:25.521Z,12.07
2024-02-17T20:33:30.212Z,12.09
2024-02-17T20:35:35.840Z,12.10
2024-02-17T20:37:39.049Z,12.09
2024-02-17T20:39:43.771Z,12.03
2024-02-17T20:41:51.891Z,12.01
2024-02-17T20:43:56.404Z,11.97
2024-02-17T20:45:59.651Z,11.94
2024-02-17T20:48:03.153Z,11.92
2024-02-17T20:50:07.876Z,11.93
2024-02-17T20:52:11.295Z,11.92
2024-02-17T20:54:17.836Z,11.93
2024-02-17T20:56:22.901Z,11.90
2024-02-17T20:58:26.168Z,11.92
2024-02-17T21:00:29.498Z,11.92
2024-02-17T21:02:38.068Z,11.94
2024-02-17T21:04:40.824Z,11.92
2024-02-17T21:06:44.186Z,11.90
2024-02-17T21:08:47.371Z,11.86
2024-02-17T21:10:50.684Z,11.84
2024-02-17T21:12:55.278Z,11.85
2024-02-17T21:14:57.709Z,11.87
2024-02-17T21:17:01.002Z,11.87
2024-02-17T21:19:03.749Z,11.90
2024-02-17T21:21:07.166Z,11.90
2024-02-17T21:23:10.744Z,11.88
2024-02-17T21:25:14.912Z,11.83
2024-02-17T21:27:18.831Z,11.81
2024-02-17T21:29:23.500Z,11.78
2024-02-17T21:31:25.966Z,11.79
2024-02-17T21:33:29.279Z,11.80
2024-02-17T21:35:32.591Z,11.79
2024-02-17T21:37:35.812Z,11.78
2024-02-17T21:39:39.528Z,11.77
2024-02-17T21:41:42.309Z,11.77
2024-02-17T21:43:45.590Z,11.78
2024-02-17T21:45:51.663Z,11.80
2024-02-17T21:47:55.101Z,11.80
2024-02-17T21:49:58.607Z,11.79
2024-02-17T21:52:02.167Z,11.78
2024-02-17T21:54:05.621Z,11.75
2024-02-17T21:56:09.332Z,11.73
2024-02-17T21:58:12.395Z,11.72
2024-02-17T22:00:16.353Z,11.68
2024-02-17T22:02:21.054Z,11.69
2024-02-17T22:04:24.418Z,11.71
2024-02-17T22:06:27.967Z,11.72
2024-02-17T22:08:31.194Z,11.74
2024-02-17T22:10:34.372Z,11.75
2024-02-17T22:12:37.577Z,11.74
2024-02-17T22:14:40.673Z,11.73
2024-02-17T22:16:43.772Z,11.73
2024-02-17T22:18:48.470Z,11.74
2024-02-17T22:20:51.758Z,11.73
2024-02-17T22:22:53.928Z,11.73
2024-02-17T22:24:57.422Z,11.73
2024-02-17T22:27:00.676Z,11.75
2024-02-17T22:29:06.144Z,11.75
2024-02-17T22:31:09.332Z,11.76
2024-02-17T22:33:12.888Z,11.75
2024-02-17T22:35:17.503Z,11.75
2024-02-17T22:37:20.656Z,11.74
2024-02-17T22:39:24.629Z,11.72
2024-02-17T22:41:28.095Z,11.75
2024-02-17T22:43:31.522Z,11.75
2024-02-17T22:45:34.655Z,11.71
2024-02-17T22:47:37.881Z,11.68
2024-02-17T22:49:40.103Z,11.65
2024-02-17T22:51:44.695Z,11.65
2024-02-17T22:53:47.924Z,11.64
2024-02-17T22:55:51.404Z,11.63
2024-02-17T22:57:54.706Z,11.60
2024-02-17T22:59:57.998Z,11.60
2024-02-17T23:02:01.229Z,11.57
2024-02-17T23:04:06.303Z,11.54
2024-02-17T23:06:10.730Z,11.51
2024-02-17T23:08:15.637Z,11.47
2024-02-17T23:10:19.082Z,11.45
2024-02-17T23:12:22.474Z,11.45
2024-02-17T23:14:25.917Z,11.46
2024-02-17T23:16:29.316Z,11.45
2024-02-17T23:18:32.805Z,11.46
2024-02-17T23:20:36.146Z,11.47
2024-02-17T23:22:38.325Z,11.46
2024-02-17T23:24:44.073Z,11.45
2024-02-17T23:26:47.261Z,11.45
2024-02-17T23:28:50.450Z,11.42
2024-02-17T23:30:53.685Z,11.41
2024-02-17T23:32:57.389Z,11.40
2024-02-17T23:34:59.797Z,11.39
2024-02-17T23:37:03.457Z,11.39
2024-02-17T23:39:07.004Z,11.40
2024-02-17T23:41:11.684Z,11.40
2024-02-17T23:43:14.916Z,11.38
2024-02-17T23:45:20.738Z,11.38
2024-02-17T23:47:23.996Z,11.37
2024-02-17T23:49:28.089Z,11.38
2024-02-17T23:51:31.521Z,11.36
2024-02-17T23:53:35.116Z,11.36
2024-02-17T23:55:38.243Z,11.36
2024-02-17T23:57:42.877Z,11.35
2024-02-17T23:59:46.296Z,11.33
